Valmiera, Latvia
Current Conditions -  °F | °C
As of 3:20 PM on Saturday 01 Nov 2014 (Local Time) from EVRA Reporting Station
Haze Haze  
Wind Chill: 36°   Ceiling: 200
Heat Index: 36°   Visibility: 3mi
Dew Point: 36°   Wind: 3mph
Humidity: 100%   Direction: 140°SE
Pressure: 30.27"   Gusts: NA
Location:  57.55°N, 25.42°E
Report Text: EVRA 011220Z 14003KT 110V180 5000 BR OVC002 02/02 Q1025 R18/190095 TEMPO 4000
Loading
Personal Weather Stations






























Interactive Weather Map
Tropical Storm Tracking
New forecast layout! Learn more

10-Day Weather Forecast

Advertisements
Track Severe Weather on mobile